Time;durP1;ratioP1;P1;durP2;ratioP2;P2;SDS_P1;SDS_P2;PMS_P1;PMS_P2;Temp;Humidity;BMP_temperature;BMP_pressure;BME280_temperature;BME280_humidity;BME280_pressure;Samples;Min_cycle;Max_cycle;Signal;HPM_P1;HPM_P2
2023/12/20 00:02:18;;;;;;;1.45;1.20;;;6.40;99.90;;;;;;5043215;28;20017;-66
2023/12/20 00:04:44;;;;;;;0.95;0.85;;;6.40;99.90;;;;;;5044125;28;20378;-66
2023/12/20 00:07:09;;;;;;;1.45;0.90;;;6.40;99.90;;;;;;5032730;28;20544;-66
2023/12/20 00:09:35;;;;;;;1.00;0.90;;;6.40;99.90;;;;;;5034408;28;20524;-66
2023/12/20 00:12:00;;;;;;;1.48;1.00;;;6.50;99.90;;;;;;5033364;28;20030;-66
2023/12/20 00:14:26;;;;;;;0.98;0.93;;;6.50;99.90;;;;;;5035367;28;20108;-66
2023/12/20 00:16:51;;;;;;;1.33;0.75;;;6.40;99.90;;;;;;5036044;28;20463;-66
2023/12/20 00:19:17;;;;;;;0.85;0.63;;;6.40;99.90;;;;;;5040553;28;20021;-66
2023/12/20 00:21:43;;;;;;;1.05;0.80;;;6.50;99.90;;;;;;5044717;28;20060;-66
2023/12/20 00:24:08;;;;;;;1.40;1.13;;;6.40;99.90;;;;;;5029436;28;20648;-66
2023/12/20 00:26:34;;;;;;;0.55;0.50;;;6.40;99.90;;;;;;5035559;28;21203;-66
2023/12/20 00:28:59;;;;;;;1.20;0.73;;;6.40;99.90;;;;;;5037342;28;20099;-66
2023/12/20 00:31:25;;;;;;;0.63;0.63;;;6.40;99.90;;;;;;5048986;28;20118;-66
2023/12/20 00:33:51;;;;;;;2.33;0.70;;;6.30;99.90;;;;;;5045003;28;20537;-66
2023/12/20 00:36:16;;;;;;;1.42;0.90;;;6.30;99.90;;;;;;5045337;28;20037;-66
2023/12/20 00:38:42;;;;;;;1.42;0.77;;;6.20;99.90;;;;;;5047428;28;20104;-66
2023/12/20 00:41:07;;;;;;;1.15;0.77;;;6.20;99.90;;;;;;5032444;28;20084;-66
2023/12/20 00:43:33;;;;;;;0.80;0.77;;;6.10;99.90;;;;;;5049309;28;20056;-66
2023/12/20 00:46:00;;;;;;;1.08;0.75;;;6.10;99.90;;;;;;5051117;28;20071;-66
2023/12/20 00:48:27;;;;;;;1.27;1.05;;;6.00;99.90;;;;;;5048921;28;20447;-66
2023/12/20 00:50:52;;;;;;;1.20;0.65;;;6.00;99.90;;;;;;5050583;28;20017;-66
2023/12/20 00:53:18;;;;;;;0.90;0.50;;;5.90;99.90;;;;;;5049700;28;20021;-66
2023/12/20 00:55:45;;;;;;;1.73;0.80;;;5.90;99.90;;;;;;5045286;28;20386;-66
2023/12/20 00:58:10;;;;;;;1.35;0.80;;;5.80;99.90;;;;;;5040314;28;20026;-66
2023/12/20 01:00:36;;;;;;;2.35;0.90;;;5.70;99.90;;;;;;5032372;28;20029;-66
2023/12/20 01:03:02;;;;;;;1.27;0.70;;;5.60;99.90;;;;;;5032152;28;20029;-66
2023/12/20 01:05:27;;;;;;;0.80;0.68;;;5.60;99.90;;;;;;5050081;28;20035;-66
2023/12/20 01:07:53;;;;;;;1.23;1.00;;;5.50;99.90;;;;;;5050143;28;20482;-66
2023/12/20 01:10:18;;;;;;;1.00;0.90;;;5.50;99.90;;;;;;5049901;28;20097;-66
2023/12/20 01:12:44;;;;;;;2.42;1.00;;;5.50;99.90;;;;;;5031673;28;20025;-66
2023/12/20 01:15:10;;;;;;;1.70;0.85;;;5.50;99.90;;;;;;5049880;28;20029;-65
2023/12/20 01:17:36;;;;;;;1.35;0.90;;;5.50;99.90;;;;;;5050046;28;20502;-67
2023/12/20 01:20:01;;;;;;;1.75;0.75;;;5.40;99.90;;;;;;5050441;28;20025;-67
2023/12/20 01:22:27;;;;;;;1.15;0.73;;;5.40;99.90;;;;;;5049065;28;20104;-67
2023/12/20 01:24:53;;;;;;;1.55;0.85;;;5.40;99.90;;;;;;5050639;28;20401;-67
2023/12/20 01:27:18;;;;;;;3.05;1.17;;;5.30;99.90;;;;;;5049251;28;20040;-67
2023/12/20 01:29:44;;;;;;;1.33;0.80;;;5.30;99.90;;;;;;5051359;28;20083;-67
2023/12/20 01:32:09;;;;;;;1.95;0.75;;;5.30;99.90;;;;;;5052221;28;20057;-67
2023/12/20 01:34:35;;;;;;;1.70;1.02;;;5.30;99.90;;;;;;5053743;28;20091;-66
2023/12/20 01:37:02;;;;;;;1.60;0.95;;;5.30;99.90;;;;;;5053692;28;20021;-66
2023/12/20 01:39:28;;;;;;;3.13;0.95;;;5.30;99.90;;;;;;5053447;28;20029;-66
2023/12/20 01:41:53;;;;;;;1.00;0.90;;;5.20;99.90;;;;;;5053297;28;20087;-67
2023/12/20 01:44:19;;;;;;;1.50;0.98;;;5.20;99.90;;;;;;5052680;28;20028;-66
2023/12/20 01:46:46;;;;;;;1.17;0.85;;;5.10;99.90;;;;;;5053120;28;20457;-66
2023/12/20 01:49:11;;;;;;;1.13;0.95;;;5.10;99.90;;;;;;5052981;28;20025;-67
2023/12/20 01:51:37;;;;;;;1.00;0.90;;;5.10;99.90;;;;;;5053254;28;20084;-67
2023/12/20 01:54:04;;;;;;;2.97;1.10;;;5.10;99.90;;;;;;5053511;28;20402;-67
2023/12/20 01:56:31;;;;;;;1.13;0.93;;;5.10;99.90;;;;;;5040804;28;20051;-67
2023/12/20 01:58:57;;;;;;;2.25;1.30;;;5.00;99.90;;;;;;5053357;28;20097;-67
2023/12/20 02:01:23;;;;;;;1.50;1.27;;;5.00;99.90;;;;;;5052120;28;20040;-67
2023/12/20 02:03:48;;;;;;;1.08;0.98;;;5.00;99.90;;;;;;5035376;28;20033;-67
2023/12/20 02:06:14;;;;;;;1.88;1.30;;;4.90;99.90;;;;;;5052445;28;20036;-67
2023/12/20 02:08:40;;;;;;;1.55;1.17;;;5.00;99.90;;;;;;5053387;28;20035;-67
2023/12/20 02:11:06;;;;;;;1.83;1.27;;;4.90;99.90;;;;;;5053068;28;20406;-67
2023/12/20 02:13:32;;;;;;;1.40;1.15;;;4.90;99.90;;;;;;5052407;28;20108;-67
2023/12/20 02:15:57;;;;;;;2.47;1.50;;;4.90;99.90;;;;;;5053661;28;20033;-66
2023/12/20 02:18:23;;;;;;;3.03;1.80;;;4.90;99.90;;;;;;5051205;28;20025;-66
2023/12/20 02:20:49;;;;;;;1.38;1.27;;;4.80;99.90;;;;;;5053038;28;20028;-66
2023/12/20 02:23:14;;;;;;;1.65;1.33;;;4.80;99.90;;;;;;5052111;28;20033;-67
2023/12/20 02:25:40;;;;;;;2.95;1.33;;;4.80;99.90;;;;;;5052935;28;20036;-67
2023/12/20 02:28:06;;;;;;;1.38;1.17;;;4.80;99.90;;;;;;5052261;28;20139;-67
2023/12/20 02:30:32;;;;;;;1.50;1.30;;;4.90;99.90;;;;;;5051387;28;20486;-66
2023/12/20 02:33:00;;;;;;;1.67;1.20;;;4.90;99.90;;;;;;5052729;28;20024;-67
2023/12/20 02:35:25;;;;;;;1.77;1.13;;;4.90;99.90;;;;;;5052283;28;20045;-66
2023/12/20 02:37:51;;;;;;;1.85;1.27;;;4.90;99.90;;;;;;5051971;28;20029;-66
2023/12/20 02:40:16;;;;;;;3.05;1.35;;;4.90;99.90;;;;;;5051502;28;20032;-66
2023/12/20 02:42:42;;;;;;;1.98;1.20;;;4.90;99.90;;;;;;5052344;28;20040;-66
2023/12/20 02:45:08;;;;;;;4.00;1.40;;;4.90;99.90;;;;;;5052022;28;20025;-66
2023/12/20 02:47:33;;;;;;;3.30;1.30;;;4.90;99.90;;;;;;5052092;28;20124;-66
2023/12/20 02:49:59;;;;;;;3.22;1.42;;;4.90;99.90;;;;;;5052773;28;20029;-67
2023/12/20 02:52:25;;;;;;;1.80;1.23;;;4.90;99.90;;;;;;5051154;28;20033;-66
2023/12/20 02:54:50;;;;;;;1.35;1.25;;;4.90;99.90;;;;;;5052749;28;20021;-66
2023/12/20 02:57:16;;;;;;;1.35;1.13;;;4.80;99.90;;;;;;5051260;28;20100;-66
2023/12/20 02:59:42;;;;;;;2.97;1.40;;;4.80;99.90;;;;;;5051747;28;20035;-66
2023/12/20 03:02:07;;;;;;;4.50;1.98;;;4.80;99.90;;;;;;5051649;28;20071;-66
2023/12/20 03:04:33;;;;;;;3.80;1.92;;;4.80;99.90;;;;;;5051670;28;20381;-66
2023/12/20 03:06:59;;;;;;;2.10;1.42;;;4.80;99.90;;;;;;5051756;28;20078;-66
2023/12/20 03:09:24;;;;;;;2.28;1.95;;;4.90;99.90;;;;;;5051126;28;20033;-66
2023/12/20 03:11:50;;;;;;;4.95;2.00;;;4.90;99.90;;;;;;5051818;28;20039;-66
2023/12/20 03:14:15;;;;;;;1.88;1.60;;;4.90;99.90;;;;;;5051315;28;20029;-66
2023/12/20 03:16:41;;;;;;;3.60;1.70;;;4.90;99.90;;;;;;5051438;28;20033;-66
2023/12/20 03:19:06;;;;;;;2.63;1.92;;;4.90;99.90;;;;;;5051796;28;20521;-67
2023/12/20 03:21:32;;;;;;;2.67;1.80;;;4.90;99.90;;;;;;5033141;28;20698;-67
2023/12/20 03:23:58;;;;;;;4.13;1.80;;;4.90;99.90;;;;;;5052342;28;20048;-66
2023/12/20 03:26:23;;;;;;;3.35;2.10;;;4.80;99.90;;;;;;5050446;28;20029;-66
2023/12/20 03:28:49;;;;;;;2.00;1.80;;;4.90;99.90;;;;;;5051799;28;20421;-67
2023/12/20 03:31:14;;;;;;;1.90;1.70;;;4.90;99.90;;;;;;5050139;28;20053;-66
2023/12/20 03:33:40;;;;;;;2.28;1.73;;;4.80;99.90;;;;;;5052185;28;20033;-67
2023/12/20 03:36:06;;;;;;;2.70;2.10;;;4.80;99.90;;;;;;5051878;28;20116;-66
2023/12/20 03:38:31;;;;;;;2.15;1.45;;;4.80;99.90;;;;;;5050051;28;20106;-67
2023/12/20 03:40:57;;;;;;;1.30;1.20;;;4.90;99.90;;;;;;5051676;28;20450;-66
2023/12/20 03:43:22;;;;;;;2.15;1.60;;;4.80;99.90;;;;;;5050596;28;20076;-66
2023/12/20 03:45:48;;;;;;;2.33;1.50;;;4.80;99.90;;;;;;5051369;28;20040;-67
2023/12/20 03:48:13;;;;;;;1.45;1.30;;;4.80;99.90;;;;;;5050212;28;20037;-67
2023/12/20 03:50:39;;;;;;;2.75;1.50;;;4.80;99.90;;;;;;5051309;28;20024;-67
2023/12/20 03:53:05;;;;;;;1.75;1.17;;;4.80;99.90;;;;;;5050808;28;20029;-66
2023/12/20 03:55:30;;;;;;;2.05;1.08;;;4.80;99.90;;;;;;5050874;28;20635;-66
2023/12/20 03:57:56;;;;;;;1.10;1.00;;;4.80;99.90;;;;;;5050915;28;20025;-66
2023/12/20 04:00:21;;;;;;;0.88;0.70;;;4.90;99.90;;;;;;5049998;28;20029;-66
2023/12/20 04:02:47;;;;;;;0.93;0.80;;;4.80;99.90;;;;;;5050614;28;20028;-66
2023/12/20 04:05:12;;;;;;;0.73;0.50;;;4.80;99.90;;;;;;5050633;28;20070;-66
2023/12/20 04:07:38;;;;;;;0.80;0.70;;;4.80;99.90;;;;;;5051073;28;20178;-66
2023/12/20 04:10:04;;;;;;;0.40;0.40;;;4.80;99.90;;;;;;5051407;28;20021;-67
2023/12/20 04:12:30;;;;;;;0.43;0.38;;;4.80;99.90;;;;;;5049820;28;20021;-66
2023/12/20 04:14:56;;;;;;;0.30;0.30;;;4.80;99.90;;;;;;5051699;28;20017;-66
2023/12/20 04:17:22;;;;;;;0.73;0.30;;;4.80;99.90;;;;;;5049744;28;20107;-66
2023/12/20 04:19:48;;;;;;;0.40;0.22;;;4.70;99.90;;;;;;5050868;28;20482;-67
2023/12/20 04:22:14;;;;;;;2.22;0.45;;;4.70;99.90;;;;;;5049794;28;20033;-67
2023/12/20 04:24:42;;;;;;;0.32;0.30;;;4.70;99.90;;;;;;5034509;28;20027;-66
2023/12/20 04:27:08;;;;;;;0.52;0.35;;;4.70;99.90;;;;;;5050660;28;20040;-66
2023/12/20 04:29:33;;;;;;;0.10;0.10;;;4.70;99.90;;;;;;5050525;28;20086;-67
2023/12/20 04:32:00;;;;;;;0.15;0.15;;;4.70;99.90;;;;;;5049937;28;20135;-66
2023/12/20 04:34:26;;;;;;;0.20;0.20;;;4.60;99.90;;;;;;5050020;28;20360;-66
2023/12/20 04:36:51;;;;;;;0.20;0.20;;;4.70;99.90;;;;;;5050484;28;20029;-66
2023/12/20 04:39:17;;;;;;;1.45;0.13;;;4.60;99.90;;;;;;5050121;28;20413;-67
2023/12/20 04:41:43;;;;;;;1.13;0.20;;;4.70;99.90;;;;;;5050595;28;20112;-66
2023/12/20 04:44:08;;;;;;;0.85;0.30;;;4.60;99.90;;;;;;5051120;28;20378;-66
2023/12/20 04:46:34;;;;;;;0.08;0.08;;;4.60;99.90;;;;;;5049386;28;20071;-67
2023/12/20 04:48:59;;;;;;;1.00;0.30;;;4.60;99.90;;;;;;5033186;28;20510;-66
2023/12/20 04:51:25;;;;;;;1.13;0.20;;;4.60;99.90;;;;;;5049423;28;20018;-67
2023/12/20 04:53:50;;;;;;;0.10;0.10;;;4.60;99.90;;;;;;5050467;28;20021;-67
2023/12/20 04:56:16;;;;;;;0.47;0.22;;;4.60;99.90;;;;;;5049566;28;20083;-67
2023/12/20 04:58:42;;;;;;;0.32;0.25;;;4.50;99.90;;;;;;5032595;28;20437;-67
2023/12/20 05:01:09;;;;;;;0.88;0.20;;;4.50;99.90;;;;;;5050576;28;20021;-67
2023/12/20 05:03:35;;;;;;;0.63;0.10;;;4.50;99.90;;;;;;5050668;28;20029;-66
2023/12/20 05:06:00;;;;;;;0.63;0.00;;;4.50;99.90;;;;;;5055100;28;20044;-66
2023/12/20 05:08:26;;;;;;;2.40;0.20;;;4.60;99.90;;;;;;5053800;28;20033;-67
2023/12/20 05:10:54;;;;;;;0.20;0.10;;;4.50;99.90;;;;;;5054543;28;20025;-67
2023/12/20 05:13:20;;;;;;;0.10;0.10;;;4.50;99.90;;;;;;5059166;28;20021;-67
2023/12/20 05:15:45;;;;;;;2.75;0.28;;;4.50;99.90;;;;;;5062436;28;20032;-65
2023/12/20 05:18:11;;;;;;;0.13;0.10;;;4.60;99.90;;;;;;5042990;28;20037;-65
2023/12/20 05:20:37;;;;;;;1.10;0.15;;;4.60;99.90;;;;;;5060562;28;20094;-67
2023/12/20 05:23:02;;;;;;;0.28;0.10;;;4.60;99.90;;;;;;5053831;28;20078;-66
2023/12/20 05:25:28;;;;;;;0.20;0.10;;;4.50;99.90;;;;;;5053754;28;20116;-67
2023/12/20 05:27:54;;;;;;;0.30;0.20;;;4.60;99.90;;;;;;5053876;28;20056;-66
2023/12/20 05:30:19;;;;;;;0.32;0.10;;;4.50;99.90;;;;;;5053312;28;20029;-66
2023/12/20 05:32:45;;;;;;;0.17;0.17;;;4.50;99.90;;;;;;5053219;28;20099;-66
2023/12/20 05:35:10;;;;;;;0.85;0.22;;;4.50;99.90;;;;;;5054019;28;20029;-66
2023/12/20 05:37:36;;;;;;;1.65;0.28;;;4.60;99.90;;;;;;5053035;28;20113;-66
2023/12/20 05:40:01;;;;;;;0.50;0.20;;;4.60;99.90;;;;;;5054397;28;20052;-66
2023/12/20 05:42:27;;;;;;;0.40;0.20;;;4.50;99.90;;;;;;5052663;28;20025;-66
2023/12/20 05:44:52;;;;;;;0.88;0.20;;;4.60;99.90;;;;;;5053747;28;20028;-65
2023/12/20 05:47:18;;;;;;;0.68;0.25;;;4.50;99.90;;;;;;5052540;28;20064;-66
2023/12/20 05:49:45;;;;;;;0.75;0.20;;;4.60;99.90;;;;;;5053926;28;20036;-66
2023/12/20 05:52:10;;;;;;;0.10;0.10;;;4.60;99.90;;;;;;5035330;28;20029;-69
2023/12/20 05:54:36;;;;;;;0.77;0.17;;;4.60;99.90;;;;;;5053014;28;20323;-67
2023/12/20 05:57:01;;;;;;;0.82;0.40;;;4.60;99.90;;;;;;5052857;28;20100;-66
2023/12/20 05:59:27;;;;;;;1.42;0.10;;;4.60;99.90;;;;;;5053271;28;20036;-66
2023/12/20 06:01:53;;;;;;;2.17;0.40;;;4.60;99.90;;;;;;5053005;28;20029;-66
2023/12/20 06:04:19;;;;;;;0.63;0.10;;;4.60;99.90;;;;;;5052562;28;20021;-66
2023/12/20 06:06:44;;;;;;;1.05;0.32;;;4.60;99.90;;;;;;5035120;28;20028;-66
2023/12/20 06:09:10;;;;;;;0.93;0.50;;;4.60;99.90;;;;;;5053548;28;20394;-66
2023/12/20 06:11:36;;;;;;;1.15;0.47;;;4.60;99.90;;;;;;5052178;28;20033;-64
2023/12/20 06:14:02;;;;;;;2.85;0.40;;;4.60;99.90;;;;;;5050190;28;20056;-65
2023/12/20 06:16:27;;;;;;;1.50;0.50;;;4.60;99.90;;;;;;5043265;28;20056;-65
2023/12/20 06:18:53;;;;;;;1.00;0.60;;;4.60;99.90;;;;;;5046392;28;20041;-65
2023/12/20 06:21:18;;;;;;;3.45;0.70;;;4.60;99.90;;;;;;5041362;28;20026;-66
2023/12/20 06:23:44;;;;;;;2.08;0.40;;;4.60;99.90;;;;;;5050079;28;20079;-66
2023/12/20 06:26:10;;;;;;;3.53;0.60;;;4.60;99.90;;;;;;5035354;28;20674;-73
2023/12/20 06:28:35;;;;;;;2.50;0.38;;;4.60;99.90;;;;;;5051510;28;20032;-66
2023/12/20 06:31:01;;;;;;;2.38;0.80;;;4.60;99.90;;;;;;5052667;28;20052;-64
2023/12/20 06:33:27;;;;;;;2.08;0.88;;;4.60;99.90;;;;;;5051533;28;20367;-64
2023/12/20 06:35:52;;;;;;;3.35;0.90;;;4.60;99.90;;;;;;5052980;28;20083;-70
2023/12/20 06:38:19;;;;;;;2.00;0.85;;;4.60;99.90;;;;;;5051448;28;20028;-69
2023/12/20 06:40:45;;;;;;;0.40;0.40;;;4.60;99.90;;;;;;5045931;28;20684;-67
2023/12/20 06:43:11;;;;;;;2.25;1.05;;;4.70;99.90;;;;;;5050755;28;20029;-67
2023/12/20 06:45:37;;;;;;;0.63;0.50;;;4.70;99.90;;;;;;5051575;28;20037;-67
2023/12/20 06:48:03;;;;;;;1.33;0.60;;;4.70;99.90;;;;;;5047379;28;20037;-66
2023/12/20 06:50:28;;;;;;;1.95;1.60;;;4.70;99.90;;;;;;5050207;28;20025;-67
2023/12/20 06:52:54;;;;;;;2.58;1.33;;;4.70;99.90;;;;;;5048925;28;20025;-66
2023/12/20 06:55:19;;;;;;;1.30;0.77;;;4.70;99.90;;;;;;5047855;28;20095;-67
2023/12/20 06:57:45;;;;;;;5.95;0.93;;;4.70;99.90;;;;;;5043392;28;20033;-67
2023/12/20 07:00:12;;;;;;;4.03;1.40;;;4.70;99.90;;;;;;5051136;28;20187;-66
2023/12/20 07:02:37;;;;;;;1.30;0.90;;;4.70;99.90;;;;;;5051470;28;20130;-66
2023/12/20 07:05:04;;;;;;;2.30;0.98;;;4.70;99.90;;;;;;5042553;28;20167;-66
2023/12/20 07:07:30;;;;;;;3.17;1.08;;;4.70;99.90;;;;;;5046250;28;20033;-65
2023/12/20 07:09:55;;;;;;;1.38;0.80;;;4.70;99.90;;;;;;5046556;28;20040;-64
2023/12/20 07:12:21;;;;;;;0.82;0.73;;;4.80;99.90;;;;;;5047809;28;20032;-64
2023/12/20 07:14:46;;;;;;;1.73;0.70;;;4.70;99.90;;;;;;5052434;28;20370;-66
2023/12/20 07:17:13;;;;;;;1.55;1.00;;;4.70;99.90;;;;;;5048504;28;20021;-67
2023/12/20 07:19:39;;;;;;;2.50;0.82;;;4.70;99.90;;;;;;5043199;28;20078;-66
2023/12/20 07:22:06;;;;;;;2.97;0.80;;;4.70;99.90;;;;;;5050214;28;20025;-66
2023/12/20 07:24:32;;;;;;;1.95;0.68;;;4.80;99.90;;;;;;5049837;28;20207;-66
2023/12/20 07:26:59;;;;;;;0.55;0.55;;;4.80;99.90;;;;;;5049999;28;20021;-66
2023/12/20 07:29:25;;;;;;;3.03;1.08;;;4.80;99.90;;;;;;5040973;28;20029;-66
2023/12/20 07:31:53;;;;;;;2.00;0.68;;;4.80;99.90;;;;;;5044910;28;20406;-66
2023/12/20 07:34:18;;;;;;;1.02;0.90;;;4.80;99.90;;;;;;5049770;28;20037;-66
2023/12/20 07:36:45;;;;;;;1.10;1.00;;;4.90;99.90;;;;;;5051051;28;20048;-65
2023/12/20 07:39:10;;;;;;;2.45;1.00;;;5.00;99.90;;;;;;5046541;28;20029;-65
2023/12/20 07:41:36;;;;;;;1.65;1.17;;;5.00;99.90;;;;;;5050158;28;20098;-66
2023/12/20 07:44:01;;;;;;;1.90;1.55;;;5.10;99.90;;;;;;5041922;28;20048;-66
2023/12/20 07:46:27;;;;;;;3.78;1.42;;;5.20;99.90;;;;;;5042214;28;20442;-65
2023/12/20 07:48:52;;;;;;;1.70;1.50;;;5.10;99.90;;;;;;5042658;28;20382;-65
2023/12/20 07:51:18;;;;;;;4.10;1.98;;;5.00;99.90;;;;;;5038932;28;20036;-68
2023/12/20 07:53:44;;;;;;;3.58;1.90;;;5.00;99.90;;;;;;5050542;28;20408;-65
2023/12/20 07:56:17;;;;;;;2.17;1.60;;;5.00;99.90;;;;;;5051143;28;20033;-65
2023/12/20 07:58:43;;;;;;;2.05;1.85;;;5.10;99.90;;;;;;5047399;28;20498;-69
2023/12/20 08:01:09;;;;;;;2.63;1.92;;;5.10;99.90;;;;;;5055041;28;20459;-68
2023/12/20 08:03:35;;;;;;;2.70;2.42;;;5.00;99.90;;;;;;5058820;28;20044;-68
2023/12/20 08:06:00;;;;;;;3.50;2.15;;;4.90;99.90;;;;;;5051017;28;20025;-68
2023/12/20 08:08:26;;;;;;;4.00;2.10;;;4.80;99.90;;;;;;5041274;28;20164;-68
2023/12/20 08:10:51;;;;;;;2.60;2.40;;;4.90;99.90;;;;;;5047835;28;20048;-68
2023/12/20 08:13:17;;;;;;;3.20;2.20;;;4.90;99.90;;;;;;5019571;28;20390;-67
2023/12/20 08:15:43;;;;;;;3.30;2.53;;;4.80;99.90;;;;;;5051488;28;20037;-67
2023/12/20 08:18:08;;;;;;;3.35;1.75;;;4.80;99.90;;;;;;5047820;28;20040;-68
2023/12/20 08:20:34;;;;;;;3.22;2.15;;;4.80;99.90;;;;;;5049891;28;20118;-68
2023/12/20 08:22:59;;;;;;;2.75;2.10;;;4.80;99.90;;;;;;5044918;28;20033;-67
2023/12/20 08:25:25;;;;;;;3.70;2.08;;;4.70;99.90;;;;;;5040058;28;20029;-67
2023/12/20 08:27:51;;;;;;;3.65;2.35;;;4.60;99.90;;;;;;5046469;28;20026;-67
2023/12/20 08:30:20;;;;;;;4.32;2.63;;;4.60;99.90;;;;;;5046346;28;20025;-66
2023/12/20 08:32:46;;;;;;;3.20;2.30;;;4.70;99.90;;;;;;5047605;28;20029;-66
2023/12/20 08:35:11;;;;;;;6.07;2.13;;;4.70;99.90;;;;;;5021394;28;20027;-67
2023/12/20 08:37:37;;;;;;;3.88;2.03;;;5.00;99.90;;;;;;5048584;28;20029;-66
2023/12/20 08:40:03;;;;;;;3.67;2.15;;;4.90;99.90;;;;;;5049672;28;20024;-66
2023/12/20 08:42:31;;;;;;;2.60;2.40;;;4.80;99.90;;;;;;5049346;28;20442;-68
2023/12/20 08:44:58;;;;;;;7.03;2.38;;;4.80;99.90;;;;;;5039403;28;20036;-68
2023/12/20 08:47:24;;;;;;;3.30;2.42;;;4.70;99.90;;;;;;5046016;28;20398;-67
2023/12/20 08:49:49;;;;;;;4.05;2.28;;;4.70;99.90;;;;;;5040530;28;20038;-67
2023/12/20 08:52:15;;;;;;;3.85;2.50;;;4.70;99.90;;;;;;5045711;28;20036;-67
2023/12/20 08:54:40;;;;;;;4.65;2.45;;;4.60;99.90;;;;;;5041797;28;20040;-67
2023/12/20 08:57:06;;;;;;;3.15;2.20;;;4.60;99.90;;;;;;5049909;28;20029;-65
2023/12/20 08:59:32;;;;;;;3.65;2.13;;;4.60;99.90;;;;;;5044167;28;20033;-65
2023/12/20 09:01:58;;;;;;;3.33;2.33;;;4.60;99.90;;;;;;5048223;28;20029;-65
2023/12/20 09:04:24;;;;;;;4.78;2.65;;;4.60;99.90;;;;;;5036758;28;20439;-65
2023/12/20 09:06:49;;;;;;;4.35;2.30;;;4.80;99.90;;;;;;5045278;28;20021;-64
2023/12/20 09:09:15;;;;;;;7.03;2.53;;;4.90;99.90;;;;;;5045590;28;20037;-65
2023/12/20 09:11:41;;;;;;;3.90;2.38;;;4.80;99.90;;;;;;5050011;28;20035;-65
2023/12/20 09:14:06;;;;;;;3.67;2.40;;;4.80;99.90;;;;;;5038625;28;20037;-65
2023/12/20 09:16:32;;;;;;;3.08;2.58;;;4.80;99.90;;;;;;5047681;28;20200;-65
2023/12/20 09:18:57;;;;;;;15.80;8.38;;;4.70;99.90;;;;;;5045277;28;20025;-65
2023/12/20 09:21:23;;;;;;;10.27;4.50;;;4.70;99.90;;;;;;5048915;28;20112;-64
2023/12/20 09:23:49;;;;;;;4.80;2.40;;;4.80;99.90;;;;;;5041277;28;20437;-65
2023/12/20 09:26:14;;;;;;;2.83;2.40;;;5.00;99.90;;;;;;5045850;28;20060;-65
2023/12/20 09:28:40;;;;;;;2.92;2.30;;;4.90;99.90;;;;;;5045959;28;20057;-64
2023/12/20 09:31:06;;;;;;;6.72;2.90;;;5.00;99.90;;;;;;5049723;28;20044;-64
2023/12/20 09:33:32;;;;;;;3.97;2.00;;;5.00;99.90;;;;;;5043182;28;20026;-64
2023/12/20 09:35:58;;;;;;;4.97;2.05;;;5.20;99.90;;;;;;5047118;28;20029;-64
2023/12/20 09:38:24;;;;;;;5.97;2.00;;;5.20;99.90;;;;;;5043054;28;20026;-64
2023/12/20 09:40:50;;;;;;;5.57;1.75;;;5.20;99.90;;;;;;5050051;28;20104;-64
2023/12/20 09:43:19;;;;;;;4.03;1.50;;;5.20;99.90;;;;;;5040370;28;20037;-64
2023/12/20 09:45:47;;;;;;;4.65;1.58;;;5.40;99.90;;;;;;5042533;28;20029;-64
2023/12/20 09:48:16;;;;;;;7.22;1.75;;;5.40;99.90;;;;;;5046529;28;20044;-65
2023/12/20 09:50:42;;;;;;;6.45;1.38;;;5.50;99.90;;;;;;5040457;28;20513;-63
2023/12/20 09:53:15;;;;;;;2.97;1.33;;;5.60;99.90;;;;;;5036173;28;20017;-64
2023/12/20 09:55:41;;;;;;;6.07;1.45;;;5.70;99.90;;;;;;5048722;28;20037;-64
2023/12/20 09:58:08;;;;;;;5.90;1.30;;;5.70;99.90;;;;;;5047133;28;20032;-65
2023/12/20 10:00:35;;;;;;;6.18;1.40;;;5.70;99.90;;;;;;5032155;28;20025;-66
2023/12/20 10:03:01;;;;;;;7.57;1.50;;;5.70;99.90;;;;;;5066603;28;20104;-65
2023/12/20 10:05:29;;;;;;;6.15;1.13;;;5.80;99.90;;;;;;5053467;28;20040;-65
2023/12/20 10:07:54;;;;;;;9.05;1.52;;;5.90;99.90;;;;;;5052775;28;20029;-65
2023/12/20 10:10:20;;;;;;;7.65;1.33;;;5.90;99.90;;;;;;5050309;28;20040;-64
2023/12/20 10:13:06;;;;;;;3.33;1.23;;;5.90;99.90;;;;;;5052155;28;20052;-65
2023/12/20 10:15:35;;;;;;;9.52;1.55;;;6.00;99.90;;;;;;5043187;28;20032;-64
2023/12/20 10:18:02;;;;;;;5.00;1.27;;;6.00;99.90;;;;;;5047449;28;20108;-64
2023/12/20 10:20:31;;;;;;;5.03;1.30;;;6.00;99.90;;;;;;5050072;28;20075;-65
2023/12/20 10:22:57;;;;;;;8.10;1.30;;;6.20;99.90;;;;;;5052185;28;20021;-65
2023/12/20 10:25:23;;;;;;;7.75;1.50;;;6.20;99.90;;;;;;5042940;28;20028;-65
2023/12/20 10:28:08;;;;;;;6.57;1.48;;;6.30;99.90;;;;;;5052238;28;20367;-65
2023/12/20 10:30:33;;;;;;;7.30;1.27;;;6.40;99.90;;;;;;5051163;28;20786;-65
2023/12/20 10:32:59;;;;;;;10.25;1.33;;;6.40;99.90;;;;;;5052215;28;20031;-65
2023/12/20 10:35:25;;;;;;;5.65;1.40;;;6.40;99.90;;;;;;5051524;28;20163;-65
2023/12/20 10:37:56;;;;;;;8.48;1.35;;;6.50;99.90;;;;;;5051900;28;20104;-65
2023/12/20 10:40:22;;;;;;;7.57;1.60;;;6.40;99.90;;;;;;5051659;28;20040;-65
2023/12/20 10:42:50;;;;;;;5.68;1.20;;;6.50;99.90;;;;;;5051649;28;20418;-65
2023/12/20 10:45:17;;;;;;;4.50;1.25;;;6.40;99.90;;;;;;5052075;28;20036;-65
2023/12/20 10:47:46;;;;;;;6.45;1.20;;;6.40;99.90;;;;;;5051754;28;20072;-65
2023/12/20 10:50:12;;;;;;;5.43;2.20;;;6.40;99.90;;;;;;5050899;28;20162;-65
2023/12/20 10:52:38;;;;;;;7.47;1.55;;;6.40;99.90;;;;;;5051101;28;20100;-65
2023/12/20 10:55:05;;;;;;;3.28;1.17;;;6.40;99.90;;;;;;5050924;28;20052;-65
2023/12/20 10:57:30;;;;;;;4.00;1.35;;;6.30;99.90;;;;;;5050659;28;20665;-65
2023/12/20 11:00:04;;;;;;;3.92;1.02;;;6.30;99.90;;;;;;5039282;28;20131;-66
2023/12/20 11:02:34;;;;;;;6.30;1.30;;;6.30;99.90;;;;;;5046794;28;20029;-65
2023/12/20 11:05:15;;;;;;;5.45;1.38;;;6.10;99.90;;;;;;5045743;28;20142;-65
2023/12/20 11:07:50;;;;;;;3.75;1.10;;;6.20;99.90;;;;;;5051199;28;20037;-64
2023/12/20 11:10:25;;;;;;;9.05;2.50;;;6.10;99.90;;;;;;5046573;28;20029;-65
2023/12/20 11:12:56;;;;;;;4.78;1.40;;;6.10;99.90;;;;;;5051931;28;20099;-65
2023/12/20 11:15:21;;;;;;;4.10;1.23;;;6.10;99.90;;;;;;5045279;28;20390;-65
2023/12/20 11:17:58;;;;;;;7.80;1.65;;;6.20;99.90;;;;;;5050881;28;20021;-64
2023/12/20 11:20:34;;;;;;;5.03;1.08;;;6.30;99.90;;;;;;5036911;28;20032;-65
2023/12/20 11:23:00;;;;;;;6.65;1.55;;;6.40;99.90;;;;;;5051578;28;20029;-65
2023/12/20 11:25:26;;;;;;;6.68;1.15;;;6.40;99.90;;;;;;5045772;28;20098;-65
2023/12/20 11:28:09;;;;;;;6.00;1.30;;;6.40;99.90;;;;;;5051134;28;20069;-65
2023/12/20 11:30:53;;;;;;;6.68;1.25;;;6.40;99.90;;;;;;5036543;28;20056;-65
2023/12/20 11:33:23;;;;;;;4.68;1.40;;;6.40;99.90;;;;;;5050147;28;20021;-65
2023/12/20 11:35:49;;;;;;;7.78;1.40;;;6.30;99.90;;;;;;5044764;28;20032;-65
2023/12/20 11:38:15;;;;;;;6.57;1.48;;;6.30;99.90;;;;;;5044747;28;20026;-65
2023/12/20 11:40:44;;;;;;;8.27;1.65;;;6.30;99.90;;;;;;5035202;28;20035;-65
2023/12/20 11:43:09;;;;;;;8.82;1.42;;;6.30;99.90;;;;;;5050108;28;20108;-64
2023/12/20 11:45:35;;;;;;;4.57;1.30;;;6.30;99.90;;;;;;5045981;28;20116;-64
2023/12/20 11:48:02;;;;;;;7.07;1.48;;;6.30;99.90;;;;;;5050898;28;20029;-64
2023/12/20 11:50:29;;;;;;;4.43;1.17;;;6.30;99.90;;;;;;5044711;28;20059;-64
2023/12/20 11:52:55;;;;;;;4.97;1.65;;;6.30;99.90;;;;;;5049960;28;20438;-64
2023/12/20 11:55:24;;;;;;;5.28;1.38;;;6.20;99.90;;;;;;5046483;28;20029;-64
2023/12/20 11:57:51;;;;;;;9.30;1.25;;;6.20;99.90;;;;;;5050590;28;20087;-64
2023/12/20 12:00:17;;;;;;;5.93;2.03;;;6.20;99.90;;;;;;5038127;28;20030;-64
2023/12/20 12:02:43;;;;;;;8.05;1.52;;;6.20;99.90;;;;;;5047767;28;20045;-64
2023/12/20 12:05:09;;;;;;;11.45;2.10;;;6.10;99.90;;;;;;5050370;28;20083;-64
2023/12/20 12:07:35;;;;;;;4.93;1.15;;;6.30;99.90;;;;;;5050209;28;20132;-64
2023/12/20 12:10:01;;;;;;;3.42;1.38;;;6.20;99.90;;;;;;5041429;28;20053;-64
2023/12/20 12:12:27;;;;;;;7.10;1.40;;;6.20;99.90;;;;;;5047345;28;20053;-67
2023/12/20 12:14:54;;;;;;;7.57;1.63;;;6.20;99.90;;;;;;5047543;28;20449;-65
2023/12/20 12:17:20;;;;;;;4.82;1.20;;;6.20;99.90;;;;;;5049827;28;20041;-64
2023/12/20 12:19:45;;;;;;;7.13;1.35;;;6.20;99.90;;;;;;5042082;28;20023;-64
2023/12/20 12:22:16;;;;;;;5.28;0.95;;;6.30;99.90;;;;;;5032698;28;20037;-64
2023/12/20 12:24:45;;;;;;;6.32;1.40;;;6.30;99.90;;;;;;5036781;28;20029;-64
2023/12/20 12:27:15;;;;;;;7.50;1.25;;;6.40;99.90;;;;;;5032431;28;20042;-64
2023/12/20 12:29:40;;;;;;;5.70;1.50;;;6.50;99.90;;;;;;5047665;28;20118;-64
2023/12/20 12:32:07;;;;;;;3.63;0.98;;;6.50;99.90;;;;;;5049934;28;20049;-64
2023/12/20 12:34:36;;;;;;;3.67;1.02;;;6.60;99.90;;;;;;5045193;28;20025;-64
2023/12/20 12:37:05;;;;;;;7.03;1.80;;;6.70;99.90;;;;;;5044484;28;20017;-66
2023/12/20 12:39:31;;;;;;;8.95;1.63;;;6.70;99.90;;;;;;5049208;28;20183;-67
2023/12/20 12:41:59;;;;;;;7.43;1.30;;;6.70;99.90;;;;;;5050131;28;20509;-66
2023/12/20 12:44:25;;;;;;;4.70;1.10;;;6.60;99.90;;;;;;5047176;28;20543;-67
2023/12/20 12:46:53;;;;;;;6.60;1.40;;;6.50;99.90;;;;;;5037067;28;20033;-67
2023/12/20 12:49:19;;;;;;;5.60;1.23;;;6.40;99.90;;;;;;5040363;28;20026;-68
2023/12/20 12:51:45;;;;;;;4.50;1.40;;;6.30;99.90;;;;;;5034258;28;20082;-66
2023/12/20 12:54:12;;;;;;;9.80;1.27;;;6.30;99.90;;;;;;5051049;28;20025;-66